sensor_id;sensor_type;location;lat;lon;timestamp;temperature;humidity
82836;DHT22;72587;50.746;8.246;2024-02-23T00:01:15;7.00;99.90
82836;DHT22;72587;50.746;8.246;2024-02-23T00:03:41;7.00;99.90
82836;DHT22;72587;50.746;8.246;2024-02-23T00:06:06;7.00;99.90
82836;DHT22;72587;50.746;8.246;2024-02-23T00:08:32;7.00;99.90
82836;DHT22;72587;50.746;8.246;2024-02-23T00:10:57;7.00;99.90
82836;DHT22;72587;50.746;8.246;2024-02-23T00:13:23;7.00;99.90
82836;DHT22;72587;50.746;8.246;2024-02-23T00:15:49;6.90;99.90
82836;DHT22;72587;50.746;8.246;2024-02-23T00:18:14;6.90;99.90
82836;DHT22;72587;50.746;8.246;2024-02-23T00:20:41;6.80;99.90
82836;DHT22;72587;50.746;8.246;2024-02-23T00:23:07;6.80;99.90
82836;DHT22;72587;50.746;8.246;2024-02-23T00:25:32;6.70;99.90
82836;DHT22;72587;50.746;8.246;2024-02-23T00:27:58;6.80;99.90
82836;DHT22;72587;50.746;8.246;2024-02-23T00:30:23;6.80;99.90
82836;DHT22;72587;50.746;8.246;2024-02-23T00:32:49;6.80;99.90
82836;DHT22;72587;50.746;8.246;2024-02-23T00:35:14;6.80;99.90
82836;DHT22;72587;50.746;8.246;2024-02-23T00:37:40;6.80;99.90
82836;DHT22;72587;50.746;8.246;2024-02-23T00:40:06;6.80;99.90
82836;DHT22;72587;50.746;8.246;2024-02-23T00:42:32;6.70;99.90
82836;DHT22;72587;50.746;8.246;2024-02-23T00:44:57;6.70;99.90
82836;DHT22;72587;50.746;8.246;2024-02-23T00:47:23;6.60;99.90
82836;DHT22;72587;50.746;8.246;2024-02-23T00:49:49;6.70;99.90
82836;DHT22;72587;50.746;8.246;2024-02-23T00:52:15;6.60;99.90
82836;DHT22;72587;50.746;8.246;2024-02-23T00:54:41;6.60;99.90
82836;DHT22;72587;50.746;8.246;2024-02-23T00:57:06;6.60;99.90
82836;DHT22;72587;50.746;8.246;2024-02-23T00:59:32;6.60;99.90
82836;DHT22;72587;50.746;8.246;2024-02-23T01:01:58;6.40;99.90
82836;DHT22;72587;50.746;8.246;2024-02-23T01:04:23;6.20;99.90
82836;DHT22;72587;50.746;8.246;2024-02-23T01:06:49;6.10;99.90
82836;DHT22;72587;50.746;8.246;2024-02-23T01:09:14;6.00;99.90
82836;DHT22;72587;50.746;8.246;2024-02-23T01:11:42;5.90;99.90
82836;DHT22;72587;50.746;8.246;2024-02-23T01:14:07;5.90;99.90
82836;DHT22;72587;50.746;8.246;2024-02-23T01:16:33;5.70;99.90
82836;DHT22;72587;50.746;8.246;2024-02-23T01:18:59;5.70;99.90
82836;DHT22;72587;50.746;8.246;2024-02-23T01:21:24;5.60;99.90
82836;DHT22;72587;50.746;8.246;2024-02-23T01:23:50;5.50;99.90
82836;DHT22;72587;50.746;8.246;2024-02-23T01:26:15;5.50;99.90
82836;DHT22;72587;50.746;8.246;2024-02-23T01:28:41;5.40;99.90
82836;DHT22;72587;50.746;8.246;2024-02-23T01:31:10;5.40;99.90
82836;DHT22;72587;50.746;8.246;2024-02-23T01:33:39;5.40;99.90
82836;DHT22;72587;50.746;8.246;2024-02-23T01:36:06;5.40;99.90
82836;DHT22;72587;50.746;8.246;2024-02-23T01:38:32;5.40;99.90
82836;DHT22;72587;50.746;8.246;2024-02-23T01:40:59;5.40;99.90
82836;DHT22;72587;50.746;8.246;2024-02-23T01:43:25;5.40;99.90
82836;DHT22;72587;50.746;8.246;2024-02-23T01:45:51;5.30;99.90
82836;DHT22;72587;50.746;8.246;2024-02-23T01:48:16;5.30;99.90
82836;DHT22;72587;50.746;8.246;2024-02-23T01:50:43;5.30;99.90
82836;DHT22;72587;50.746;8.246;2024-02-23T01:53:10;5.30;99.90
82836;DHT22;72587;50.746;8.246;2024-02-23T01:55:40;5.20;99.90
82836;DHT22;72587;50.746;8.246;2024-02-23T01:58:06;5.30;99.90
82836;DHT22;72587;50.746;8.246;2024-02-23T02:00:34;5.30;99.90
82836;DHT22;72587;50.746;8.246;2024-02-23T02:03:00;5.30;99.90
82836;DHT22;72587;50.746;8.246;2024-02-23T02:05:26;5.30;99.90
82836;DHT22;72587;50.746;8.246;2024-02-23T02:07:53;5.30;99.90
82836;DHT22;72587;50.746;8.246;2024-02-23T02:10:24;5.20;99.90
82836;DHT22;72587;50.746;8.246;2024-02-23T02:12:50;5.10;99.90
82836;DHT22;72587;50.746;8.246;2024-02-23T02:15:16;5.00;99.90
82836;DHT22;72587;50.746;8.246;2024-02-23T02:17:42;5.00;99.90
82836;DHT22;72587;50.746;8.246;2024-02-23T02:20:11;4.90;99.90
82836;DHT22;72587;50.746;8.246;2024-02-23T02:22:37;4.90;99.90
82836;DHT22;72587;50.746;8.246;2024-02-23T02:25:03;4.80;99.90
82836;DHT22;72587;50.746;8.246;2024-02-23T02:27:28;4.70;99.90
82836;DHT22;72587;50.746;8.246;2024-02-23T02:29:54;4.70;99.90
82836;DHT22;72587;50.746;8.246;2024-02-23T02:32:19;4.70;99.90
82836;DHT22;72587;50.746;8.246;2024-02-23T02:34:45;4.60;99.90
82836;DHT22;72587;50.746;8.246;2024-02-23T02:37:10;4.60;99.90
82836;DHT22;72587;50.746;8.246;2024-02-23T02:39:36;4.50;99.90
82836;DHT22;72587;50.746;8.246;2024-02-23T02:42:02;4.40;99.90
82836;DHT22;72587;50.746;8.246;2024-02-23T02:44:27;4.40;99.90
82836;DHT22;72587;50.746;8.246;2024-02-23T02:46:56;4.50;99.90
82836;DHT22;72587;50.746;8.246;2024-02-23T02:49:22;4.40;99.90
82836;DHT22;72587;50.746;8.246;2024-02-23T02:51:47;4.40;99.90
82836;DHT22;72587;50.746;8.246;2024-02-23T02:54:13;4.30;99.90
82836;DHT22;72587;50.746;8.246;2024-02-23T02:56:45;4.30;99.90
82836;DHT22;72587;50.746;8.246;2024-02-23T02:59:12;4.30;99.90
82836;DHT22;72587;50.746;8.246;2024-02-23T03:01:37;4.30;99.90
82836;DHT22;72587;50.746;8.246;2024-02-23T03:04:03;4.30;99.90
82836;DHT22;72587;50.746;8.246;2024-02-23T03:06:29;4.30;99.90
82836;DHT22;72587;50.746;8.246;2024-02-23T03:08:54;4.30;99.90
82836;DHT22;72587;50.746;8.246;2024-02-23T03:11:20;4.30;99.90
82836;DHT22;72587;50.746;8.246;2024-02-23T03:13:45;4.20;99.90
82836;DHT22;72587;50.746;8.246;2024-02-23T03:16:15;4.30;99.90
82836;DHT22;72587;50.746;8.246;2024-02-23T03:18:41;4.30;99.90
82836;DHT22;72587;50.746;8.246;2024-02-23T03:21:06;4.30;99.90
82836;DHT22;72587;50.746;8.246;2024-02-23T03:23:35;4.30;99.90
82836;DHT22;72587;50.746;8.246;2024-02-23T03:26:00;4.30;99.90
82836;DHT22;72587;50.746;8.246;2024-02-23T03:28:26;4.30;99.90
82836;DHT22;72587;50.746;8.246;2024-02-23T03:30:52;4.20;99.90
82836;DHT22;72587;50.746;8.246;2024-02-23T03:33:17;4.20;99.90
82836;DHT22;72587;50.746;8.246;2024-02-23T03:35:43;4.20;99.90
82836;DHT22;72587;50.746;8.246;2024-02-23T03:38:08;4.20;99.90
82836;DHT22;72587;50.746;8.246;2024-02-23T03:40:34;4.20;99.90
82836;DHT22;72587;50.746;8.246;2024-02-23T03:43:01;4.20;99.90
82836;DHT22;72587;50.746;8.246;2024-02-23T03:45:27;4.20;99.90
82836;DHT22;72587;50.746;8.246;2024-02-23T03:47:53;4.20;99.90
82836;DHT22;72587;50.746;8.246;2024-02-23T03:50:19;4.20;99.90
82836;DHT22;72587;50.746;8.246;2024-02-23T03:52:44;4.20;99.90
82836;DHT22;72587;50.746;8.246;2024-02-23T03:55:10;4.20;99.90
82836;DHT22;72587;50.746;8.246;2024-02-23T03:57:36;4.20;99.90
82836;DHT22;72587;50.746;8.246;2024-02-23T04:00:03;4.20;99.90
82836;DHT22;72587;50.746;8.246;2024-02-23T04:02:28;4.30;99.90
82836;DHT22;72587;50.746;8.246;2024-02-23T04:04:54;4.20;99.90
82836;DHT22;72587;50.746;8.246;2024-02-23T04:07:20;4.30;99.90
82836;DHT22;72587;50.746;8.246;2024-02-23T04:09:45;4.30;99.90
82836;DHT22;72587;50.746;8.246;2024-02-23T04:12:20;4.30;99.90
82836;DHT22;72587;50.746;8.246;2024-02-23T04:14:46;4.40;99.90
82836;DHT22;72587;50.746;8.246;2024-02-23T04:17:12;4.40;99.90
82836;DHT22;72587;50.746;8.246;2024-02-23T04:19:38;4.30;99.90
82836;DHT22;72587;50.746;8.246;2024-02-23T04:22:05;4.40;99.90
82836;DHT22;72587;50.746;8.246;2024-02-23T04:24:31;4.40;99.90
82836;DHT22;72587;50.746;8.246;2024-02-23T04:26:56;4.40;99.90
82836;DHT22;72587;50.746;8.246;2024-02-23T04:29:22;4.50;99.90
82836;DHT22;72587;50.746;8.246;2024-02-23T04:31:47;4.50;99.90
82836;DHT22;72587;50.746;8.246;2024-02-23T04:34:15;4.50;99.90
82836;DHT22;72587;50.746;8.246;2024-02-23T04:36:41;4.50;99.90
82836;DHT22;72587;50.746;8.246;2024-02-23T04:39:07;4.50;99.90
82836;DHT22;72587;50.746;8.246;2024-02-23T04:41:33;4.50;99.90
82836;DHT22;72587;50.746;8.246;2024-02-23T04:43:59;4.40;99.90
82836;DHT22;72587;50.746;8.246;2024-02-23T04:46:26;4.40;99.90
82836;DHT22;72587;50.746;8.246;2024-02-23T04:48:52;4.30;99.90
82836;DHT22;72587;50.746;8.246;2024-02-23T04:51:17;4.40;99.90
82836;DHT22;72587;50.746;8.246;2024-02-23T04:53:44;4.40;99.90
82836;DHT22;72587;50.746;8.246;2024-02-23T04:56:09;4.30;99.90
82836;DHT22;72587;50.746;8.246;2024-02-23T04:58:35;4.40;99.90
82836;DHT22;72587;50.746;8.246;2024-02-23T05:01:01;4.30;99.90
82836;DHT22;72587;50.746;8.246;2024-02-23T05:03:28;4.40;99.90
82836;DHT22;72587;50.746;8.246;2024-02-23T05:05:54;4.30;99.90
82836;DHT22;72587;50.746;8.246;2024-02-23T05:08:20;4.30;99.90
82836;DHT22;72587;50.746;8.246;2024-02-23T05:10:46;4.30;99.90
82836;DHT22;72587;50.746;8.246;2024-02-23T05:13:13;4.20;99.90
82836;DHT22;72587;50.746;8.246;2024-02-23T05:15:38;4.20;99.90
82836;DHT22;72587;50.746;8.246;2024-02-23T05:18:04;4.20;99.90
82836;DHT22;72587;50.746;8.246;2024-02-23T05:20:30;4.20;99.90
82836;DHT22;72587;50.746;8.246;2024-02-23T05:22:55;4.20;99.90
82836;DHT22;72587;50.746;8.246;2024-02-23T05:25:21;4.20;99.90
82836;DHT22;72587;50.746;8.246;2024-02-23T05:27:46;4.10;99.90
82836;DHT22;72587;50.746;8.246;2024-02-23T05:30:12;4.00;99.90
82836;DHT22;72587;50.746;8.246;2024-02-23T05:32:38;3.90;99.90
82836;DHT22;72587;50.746;8.246;2024-02-23T05:35:04;3.90;99.90
82836;DHT22;72587;50.746;8.246;2024-02-23T05:37:30;3.90;99.90
82836;DHT22;72587;50.746;8.246;2024-02-23T05:39:55;3.80;99.90
82836;DHT22;72587;50.746;8.246;2024-02-23T05:42:21;3.70;99.90
82836;DHT22;72587;50.746;8.246;2024-02-23T05:44:47;3.70;99.90
82836;DHT22;72587;50.746;8.246;2024-02-23T05:47:14;3.70;99.90
82836;DHT22;72587;50.746;8.246;2024-02-23T05:49:39;3.70;99.90
82836;DHT22;72587;50.746;8.246;2024-02-23T05:52:05;3.60;99.90
82836;DHT22;72587;50.746;8.246;2024-02-23T05:54:31;3.70;99.90
82836;DHT22;72587;50.746;8.246;2024-02-23T05:56:56;3.80;99.90
82836;DHT22;72587;50.746;8.246;2024-02-23T05:59:22;3.80;99.90
82836;DHT22;72587;50.746;8.246;2024-02-23T06:01:48;3.80;99.90
82836;DHT22;72587;50.746;8.246;2024-02-23T06:04:16;3.80;99.90
82836;DHT22;72587;50.746;8.246;2024-02-23T06:06:42;3.80;99.90
82836;DHT22;72587;50.746;8.246;2024-02-23T06:09:10;3.70;99.90
82836;DHT22;72587;50.746;8.246;2024-02-23T06:11:36;3.80;99.90
82836;DHT22;72587;50.746;8.246;2024-02-23T06:14:01;3.60;99.90
82836;DHT22;72587;50.746;8.246;2024-02-23T06:16:30;3.70;99.90
82836;DHT22;72587;50.746;8.246;2024-02-23T06:18:55;3.70;99.90
82836;DHT22;72587;50.746;8.246;2024-02-23T06:21:21;3.70;99.90
82836;DHT22;72587;50.746;8.246;2024-02-23T06:23:46;3.70;99.90
82836;DHT22;72587;50.746;8.246;2024-02-23T06:26:12;3.80;99.90
82836;DHT22;72587;50.746;8.246;2024-02-23T06:28:42;3.90;99.90
82836;DHT22;72587;50.746;8.246;2024-02-23T06:31:08;3.90;99.90
82836;DHT22;72587;50.746;8.246;2024-02-23T06:33:34;4.00;99.90
82836;DHT22;72587;50.746;8.246;2024-02-23T06:36:00;4.10;99.90
82836;DHT22;72587;50.746;8.246;2024-02-23T06:38:26;4.10;99.90
82836;DHT22;72587;50.746;8.246;2024-02-23T06:40:52;4.20;99.90
82836;DHT22;72587;50.746;8.246;2024-02-23T06:43:18;4.20;99.90
82836;DHT22;72587;50.746;8.246;2024-02-23T06:45:44;4.30;99.90
82836;DHT22;72587;50.746;8.246;2024-02-23T06:48:09;4.30;99.90
82836;DHT22;72587;50.746;8.246;2024-02-23T06:50:35;4.40;99.90
82836;DHT22;72587;50.746;8.246;2024-02-23T06:53:01;4.50;99.90
82836;DHT22;72587;50.746;8.246;2024-02-23T06:55:27;4.50;99.90
82836;DHT22;72587;50.746;8.246;2024-02-23T06:57:54;4.50;99.90
82836;DHT22;72587;50.746;8.246;2024-02-23T07:00:20;4.50;99.90
82836;DHT22;72587;50.746;8.246;2024-02-23T07:02:47;4.50;99.90
82836;DHT22;72587;50.746;8.246;2024-02-23T07:05:12;4.50;99.90
82836;DHT22;72587;50.746;8.246;2024-02-23T07:07:39;4.50;99.90
82836;DHT22;72587;50.746;8.246;2024-02-23T07:10:06;4.60;99.90
82836;DHT22;72587;50.746;8.246;2024-02-23T07:12:32;4.70;99.90
82836;DHT22;72587;50.746;8.246;2024-02-23T07:14:57;4.70;99.90
82836;DHT22;72587;50.746;8.246;2024-02-23T07:17:23;4.80;99.90
82836;DHT22;72587;50.746;8.246;2024-02-23T07:19:49;4.90;99.90
82836;DHT22;72587;50.746;8.246;2024-02-23T07:22:16;4.80;99.90
82836;DHT22;72587;50.746;8.246;2024-02-23T07:24:43;4.90;99.90
82836;DHT22;72587;50.746;8.246;2024-02-23T07:27:09;5.00;99.90
82836;DHT22;72587;50.746;8.246;2024-02-23T07:29:35;5.00;99.90
82836;DHT22;72587;50.746;8.246;2024-02-23T07:32:01;5.00;99.90
82836;DHT22;72587;50.746;8.246;2024-02-23T07:34:26;5.20;99.90
82836;DHT22;72587;50.746;8.246;2024-02-23T07:36:52;5.20;99.90
82836;DHT22;72587;50.746;8.246;2024-02-23T07:39:18;5.20;99.90
82836;DHT22;72587;50.746;8.246;2024-02-23T07:41:44;5.30;99.90
82836;DHT22;72587;50.746;8.246;2024-02-23T07:44:10;5.30;99.90
82836;DHT22;72587;50.746;8.246;2024-02-23T07:46:36;5.30;99.90
82836;DHT22;72587;50.746;8.246;2024-02-23T07:49:02;5.30;99.90
82836;DHT22;72587;50.746;8.246;2024-02-23T07:51:28;5.30;99.90
82836;DHT22;72587;50.746;8.246;2024-02-23T07:53:54;5.30;99.90
82836;DHT22;72587;50.746;8.246;2024-02-23T07:56:20;5.30;99.90
82836;DHT22;72587;50.746;8.246;2024-02-23T07:58:46;5.40;99.90
82836;DHT22;72587;50.746;8.246;2024-02-23T08:01:15;5.40;99.90
82836;DHT22;72587;50.746;8.246;2024-02-23T08:03:41;5.50;99.90
82836;DHT22;72587;50.746;8.246;2024-02-23T08:06:07;5.40;99.90
82836;DHT22;72587;50.746;8.246;2024-02-23T08:08:32;5.40;99.90
82836;DHT22;72587;50.746;8.246;2024-02-23T08:11:01;5.40;99.90
82836;DHT22;72587;50.746;8.246;2024-02-23T08:13:27;5.50;99.90
82836;DHT22;72587;50.746;8.246;2024-02-23T08:15:52;5.50;99.90
82836;DHT22;72587;50.746;8.246;2024-02-23T08:18:18;5.60;99.90
82836;DHT22;72587;50.746;8.246;2024-02-23T08:20:44;5.50;99.90
82836;DHT22;72587;50.746;8.246;2024-02-23T08:23:09;5.50;99.90
82836;DHT22;72587;50.746;8.246;2024-02-23T08:25:36;5.60;99.90
82836;DHT22;72587;50.746;8.246;2024-02-23T08:28:02;5.70;99.90
82836;DHT22;72587;50.746;8.246;2024-02-23T08:30:27;5.70;99.90
82836;DHT22;72587;50.746;8.246;2024-02-23T08:32:53;5.80;99.90
82836;DHT22;72587;50.746;8.246;2024-02-23T08:35:19;5.80;99.90
82836;DHT22;72587;50.746;8.246;2024-02-23T08:37:45;6.00;99.90
82836;DHT22;72587;50.746;8.246;2024-02-23T08:40:11;6.00;99.90
82836;DHT22;72587;50.746;8.246;2024-02-23T08:42:37;6.10;99.90
82836;DHT22;72587;50.746;8.246;2024-02-23T08:45:03;6.20;99.90
82836;DHT22;72587;50.746;8.246;2024-02-23T08:47:32;6.20;99.90
82836;DHT22;72587;50.746;8.246;2024-02-23T08:50:01;6.20;99.90
82836;DHT22;72587;50.746;8.246;2024-02-23T08:52:26;6.00;99.90
82836;DHT22;72587;50.746;8.246;2024-02-23T08:54:52;6.00;99.90
82836;DHT22;72587;50.746;8.246;2024-02-23T08:57:18;6.00;99.90
82836;DHT22;72587;50.746;8.246;2024-02-23T08:59:51;6.00;99.90
82836;DHT22;72587;50.746;8.246;2024-02-23T09:02:17;5.90;99.90
82836;DHT22;72587;50.746;8.246;2024-02-23T09:04:42;5.80;99.90
82836;DHT22;72587;50.746;8.246;2024-02-23T09:07:10;5.80;99.90
82836;DHT22;72587;50.746;8.246;2024-02-23T09:09:36;6.10;99.90
82836;DHT22;72587;50.746;8.246;2024-02-23T09:12:01;6.10;99.90
82836;DHT22;72587;50.746;8.246;2024-02-23T09:14:27;6.20;99.90
82836;DHT22;72587;50.746;8.246;2024-02-23T09:16:52;6.10;99.90
82836;DHT22;72587;50.746;8.246;2024-02-23T09:19:19;6.10;99.90
82836;DHT22;72587;50.746;8.246;2024-02-23T09:21:45;6.20;99.90
82836;DHT22;72587;50.746;8.246;2024-02-23T09:24:10;6.20;99.90
82836;DHT22;72587;50.746;8.246;2024-02-23T09:26:36;6.30;99.90
82836;DHT22;72587;50.746;8.246;2024-02-23T09:29:01;6.40;99.90
82836;DHT22;72587;50.746;8.246;2024-02-23T09:31:27;6.40;99.90
82836;DHT22;72587;50.746;8.246;2024-02-23T09:33:54;6.30;99.90
82836;DHT22;72587;50.746;8.246;2024-02-23T09:36:20;6.20;99.90
82836;DHT22;72587;50.746;8.246;2024-02-23T09:38:46;6.30;99.90
82836;DHT22;72587;50.746;8.246;2024-02-23T09:41:23;6.40;99.90
82836;DHT22;72587;50.746;8.246;2024-02-23T09:43:49;6.30;99.90
82836;DHT22;72587;50.746;8.246;2024-02-23T09:46:16;6.40;99.90
82836;DHT22;72587;50.746;8.246;2024-02-23T09:48:44;6.40;99.90
82836;DHT22;72587;50.746;8.246;2024-02-23T09:51:10;6.40;99.90
82836;DHT22;72587;50.746;8.246;2024-02-23T09:53:38;6.50;99.90
82836;DHT22;72587;50.746;8.246;2024-02-23T09:56:05;6.50;99.90
82836;DHT22;72587;50.746;8.246;2024-02-23T09:58:34;6.60;99.90
82836;DHT22;72587;50.746;8.246;2024-02-23T10:01:02;6.50;99.90
82836;DHT22;72587;50.746;8.246;2024-02-23T10:03:28;6.50;99.90
82836;DHT22;72587;50.746;8.246;2024-02-23T10:05:56;6.60;99.90
82836;DHT22;72587;50.746;8.246;2024-02-23T10:08:22;6.50;99.90
82836;DHT22;72587;50.746;8.246;2024-02-23T10:10:48;6.50;99.90
82836;DHT22;72587;50.746;8.246;2024-02-23T10:13:24;6.50;99.90
82836;DHT22;72587;50.746;8.246;2024-02-23T10:15:50;6.50;99.90
82836;DHT22;72587;50.746;8.246;2024-02-23T10:18:16;6.60;99.90
82836;DHT22;72587;50.746;8.246;2024-02-23T10:20:48;6.70;99.90
82836;DHT22;72587;50.746;8.246;2024-02-23T10:23:15;6.70;99.90
82836;DHT22;72587;50.746;8.246;2024-02-23T10:25:41;6.80;99.90
82836;DHT22;72587;50.746;8.246;2024-02-23T10:28:09;6.80;99.90
82836;DHT22;72587;50.746;8.246;2024-02-23T10:30:36;6.90;99.90
82836;DHT22;72587;50.746;8.246;2024-02-23T10:33:05;6.90;99.90
82836;DHT22;72587;50.746;8.246;2024-02-23T10:35:32;7.00;99.90
82836;DHT22;72587;50.746;8.246;2024-02-23T10:38:01;7.00;99.90
82836;DHT22;72587;50.746;8.246;2024-02-23T10:40:30;7.00;99.90
82836;DHT22;72587;50.746;8.246;2024-02-23T10:42:57;6.90;99.90
82836;DHT22;72587;50.746;8.246;2024-02-23T10:45:27;6.90;99.90
82836;DHT22;72587;50.746;8.246;2024-02-23T10:47:55;6.90;99.90
82836;DHT22;72587;50.746;8.246;2024-02-23T10:50:22;7.00;99.90
82836;DHT22;72587;50.746;8.246;2024-02-23T10:52:50;7.10;99.90
82836;DHT22;72587;50.746;8.246;2024-02-23T10:55:16;7.40;99.90
82836;DHT22;72587;50.746;8.246;2024-02-23T10:57:42;7.30;99.90
82836;DHT22;72587;50.746;8.246;2024-02-23T11:00:09;7.60;99.90
82836;DHT22;72587;50.746;8.246;2024-02-23T11:02:55;8.00;99.90
82836;DHT22;72587;50.746;8.246;2024-02-23T11:05:21;8.10;99.90
82836;DHT22;72587;50.746;8.246;2024-02-23T11:07:48;8.00;99.90
82836;DHT22;72587;50.746;8.246;2024-02-23T11:10:17;7.70;99.90
82836;DHT22;72587;50.746;8.246;2024-02-23T11:12:43;7.70;99.90
82836;DHT22;72587;50.746;8.246;2024-02-23T11:15:09;7.80;99.90
82836;DHT22;72587;50.746;8.246;2024-02-23T11:17:50;7.80;99.90
82836;DHT22;72587;50.746;8.246;2024-02-23T11:20:16;8.00;99.90
82836;DHT22;72587;50.746;8.246;2024-02-23T11:22:42;8.10;99.90
82836;DHT22;72587;50.746;8.246;2024-02-23T11:25:08;8.30;99.90
82836;DHT22;72587;50.746;8.246;2024-02-23T11:27:36;8.50;99.90
82836;DHT22;72587;50.746;8.246;2024-02-23T11:30:04;8.40;99.90
82836;DHT22;72587;50.746;8.246;2024-02-23T11:32:42;8.30;99.90
82836;DHT22;72587;50.746;8.246;2024-02-23T11:35:10;8.30;99.90
82836;DHT22;72587;50.746;8.246;2024-02-23T11:40:12;8.40;99.90
82836;DHT22;72587;50.746;8.246;2024-02-23T11:42:39;8.60;99.90
82836;DHT22;72587;50.746;8.246;2024-02-23T11:45:06;8.90;99.90
82836;DHT22;72587;50.746;8.246;2024-02-23T11:47:32;8.90;99.90
82836;DHT22;72587;50.746;8.246;2024-02-23T11:50:01;9.00;99.90
82836;DHT22;72587;50.746;8.246;2024-02-23T11:52:26;8.70;99.90
82836;DHT22;72587;50.746;8.246;2024-02-23T11:54:52;8.40;99.90
82836;DHT22;72587;50.746;8.246;2024-02-23T11:57:18;8.30;99.90
82836;DHT22;72587;50.746;8.246;2024-02-23T11:59:44;8.20;99.90
82836;DHT22;72587;50.746;8.246;2024-02-23T12:02:09;8.30;99.90
82836;DHT22;72587;50.746;8.246;2024-02-23T12:04:35;8.20;99.90
82836;DHT22;72587;50.746;8.246;2024-02-23T12:07:01;8.20;99.90
82836;DHT22;72587;50.746;8.246;2024-02-23T12:09:26;8.40;99.90
82836;DHT22;72587;50.746;8.246;2024-02-23T12:11:52;8.60;99.90
82836;DHT22;72587;50.746;8.246;2024-02-23T12:14:18;8.60;99.90
82836;DHT22;72587;50.746;8.246;2024-02-23T12:16:45;8.50;99.90
82836;DHT22;72587;50.746;8.246;2024-02-23T12:19:10;8.60;99.90
82836;DHT22;72587;50.746;8.246;2024-02-23T12:21:36;8.50;99.90
82836;DHT22;72587;50.746;8.246;2024-02-23T12:24:04;8.80;99.90
82836;DHT22;72587;50.746;8.246;2024-02-23T12:26:32;9.60;99.90
82836;DHT22;72587;50.746;8.246;2024-02-23T12:29:02;9.70;99.90
82836;DHT22;72587;50.746;8.246;2024-02-23T12:31:28;9.80;99.90
82836;DHT22;72587;50.746;8.246;2024-02-23T12:33:54;9.50;99.90
82836;DHT22;72587;50.746;8.246;2024-02-23T12:36:19;9.30;99.90
82836;DHT22;72587;50.746;8.246;2024-02-23T12:38:45;9.30;99.90
82836;DHT22;72587;50.746;8.246;2024-02-23T12:41:11;9.20;99.90
82836;DHT22;72587;50.746;8.246;2024-02-23T12:43:36;9.10;99.90
82836;DHT22;72587;50.746;8.246;2024-02-23T12:46:02;9.00;99.90
82836;DHT22;72587;50.746;8.246;2024-02-23T12:48:28;9.10;99.90
82836;DHT22;72587;50.746;8.246;2024-02-23T12:50:54;9.20;99.90
82836;DHT22;72587;50.746;8.246;2024-02-23T12:53:37;9.40;99.90
82836;DHT22;72587;50.746;8.246;2024-02-23T12:56:05;9.60;99.90
82836;DHT22;72587;50.746;8.246;2024-02-23T12:58:31;9.60;99.90
82836;DHT22;72587;50.746;8.246;2024-02-23T13:00:57;9.50;99.90
82836;DHT22;72587;50.746;8.246;2024-02-23T13:03:24;9.20;99.90
82836;DHT22;72587;50.746;8.246;2024-02-23T13:05:50;9.10;99.90
82836;DHT22;72587;50.746;8.246;2024-02-23T13:08:16;9.40;99.90
82836;DHT22;72587;50.746;8.246;2024-02-23T13:10:43;9.90;99.90
82836;DHT22;72587;50.746;8.246;2024-02-23T13:13:09;9.90;99.90
82836;DHT22;72587;50.746;8.246;2024-02-23T13:15:34;9.80;99.90
82836;DHT22;72587;50.746;8.246;2024-02-23T13:18:03;9.90;99.90
82836;DHT22;72587;50.746;8.246;2024-02-23T13:20:29;9.80;99.90
82836;DHT22;72587;50.746;8.246;2024-02-23T13:22:54;9.90;99.90
82836;DHT22;72587;50.746;8.246;2024-02-23T13:25:20;10.00;99.90
82836;DHT22;72587;50.746;8.246;2024-02-23T13:27:45;10.10;99.90
82836;DHT22;72587;50.746;8.246;2024-02-23T13:30:11;10.20;99.90
82836;DHT22;72587;50.746;8.246;2024-02-23T13:32:37;10.10;99.90
82836;DHT22;72587;50.746;8.246;2024-02-23T13:35:05;9.80;99.90
82836;DHT22;72587;50.746;8.246;2024-02-23T13:37:31;9.50;99.90
82836;DHT22;72587;50.746;8.246;2024-02-23T13:39:57;9.30;99.90
82836;DHT22;72587;50.746;8.246;2024-02-23T13:42:23;9.30;99.90
82836;DHT22;72587;50.746;8.246;2024-02-23T13:44:48;9.20;99.90
82836;DHT22;72587;50.746;8.246;2024-02-23T13:47:14;9.20;99.90
82836;DHT22;72587;50.746;8.246;2024-02-23T13:49:40;9.20;99.90
82836;DHT22;72587;50.746;8.246;2024-02-23T13:52:06;9.20;99.90
82836;DHT22;72587;50.746;8.246;2024-02-23T13:54:31;9.00;99.90
82836;DHT22;72587;50.746;8.246;2024-02-23T13:56:57;8.90;99.90
82836;DHT22;72587;50.746;8.246;2024-02-23T13:59:22;9.10;99.90
82836;DHT22;72587;50.746;8.246;2024-02-23T14:01:48;9.40;99.90
82836;DHT22;72587;50.746;8.246;2024-02-23T14:04:14;9.60;99.90
82836;DHT22;72587;50.746;8.246;2024-02-23T14:06:39;9.50;99.90
82836;DHT22;72587;50.746;8.246;2024-02-23T14:09:05;9.60;99.90
82836;DHT22;72587;50.746;8.246;2024-02-23T14:11:31;9.80;99.90
82836;DHT22;72587;50.746;8.246;2024-02-23T14:13:57;10.00;99.90
82836;DHT22;72587;50.746;8.246;2024-02-23T14:16:23;10.20;99.90
82836;DHT22;72587;50.746;8.246;2024-02-23T14:18:49;10.00;99.90
82836;DHT22;72587;50.746;8.246;2024-02-23T14:21:15;9.80;99.90
82836;DHT22;72587;50.746;8.246;2024-02-23T14:23:44;9.60;99.90
82836;DHT22;72587;50.746;8.246;2024-02-23T14:26:10;9.60;99.90
82836;DHT22;72587;50.746;8.246;2024-02-23T14:28:35;9.40;99.90
82836;DHT22;72587;50.746;8.246;2024-02-23T14:31:01;9.30;99.90
82836;DHT22;72587;50.746;8.246;2024-02-23T14:33:26;9.30;99.90
82836;DHT22;72587;50.746;8.246;2024-02-23T14:35:52;9.50;99.90
82836;DHT22;72587;50.746;8.246;2024-02-23T14:38:17;9.50;99.90
82836;DHT22;72587;50.746;8.246;2024-02-23T14:40:43;9.60;99.90
82836;DHT22;72587;50.746;8.246;2024-02-23T14:43:09;9.30;99.90
82836;DHT22;72587;50.746;8.246;2024-02-23T14:45:37;9.20;99.90
82836;DHT22;72587;50.746;8.246;2024-02-23T14:48:03;9.10;99.90
82836;DHT22;72587;50.746;8.246;2024-02-23T14:50:29;9.20;99.90
82836;DHT22;72587;50.746;8.246;2024-02-23T14:52:55;9.10;99.90
82836;DHT22;72587;50.746;8.246;2024-02-23T14:55:20;8.90;99.90
82836;DHT22;72587;50.746;8.246;2024-02-23T14:57:46;8.70;99.90
82836;DHT22;72587;50.746;8.246;2024-02-23T15:00:13;8.70;99.90
82836;DHT22;72587;50.746;8.246;2024-02-23T15:02:38;8.70;99.90
82836;DHT22;72587;50.746;8.246;2024-02-23T15:05:07;8.70;99.90
82836;DHT22;72587;50.746;8.246;2024-02-23T15:07:33;8.70;99.90
82836;DHT22;72587;50.746;8.246;2024-02-23T15:10:00;8.60;99.90
82836;DHT22;72587;50.746;8.246;2024-02-23T15:12:31;8.50;99.90
82836;DHT22;72587;50.746;8.246;2024-02-23T15:14:57;8.50;99.90
82836;DHT22;72587;50.746;8.246;2024-02-23T15:17:22;8.40;99.90
82836;DHT22;72587;50.746;8.246;2024-02-23T15:19:48;8.60;99.90
82836;DHT22;72587;50.746;8.246;2024-02-23T15:22:13;8.60;99.90
82836;DHT22;72587;50.746;8.246;2024-02-23T15:24:40;8.50;99.90
82836;DHT22;72587;50.746;8.246;2024-02-23T15:27:08;8.60;99.90
82836;DHT22;72587;50.746;8.246;2024-02-23T15:29:34;8.60;99.90
82836;DHT22;72587;50.746;8.246;2024-02-23T15:32:00;8.50;99.90
82836;DHT22;72587;50.746;8.246;2024-02-23T15:34:26;8.40;99.90
82836;DHT22;72587;50.746;8.246;2024-02-23T15:36:52;8.40;99.90
82836;DHT22;72587;50.746;8.246;2024-02-23T15:39:17;8.40;99.90
82836;DHT22;72587;50.746;8.246;2024-02-23T15:41:43;8.20;99.90